Terminal Aerodrome Forecast
Issued by NWS

Home | Current Version | Previous Version | Text Only | Print | Product List | Glossary On
Versions: 1 2 3 4 5 6 7 8 9 10 11 12 13 14 15 16 17 18 19 20 21 22 23 24 25 26 27 28 29
000
FTUS44 KHGX 191141
TAFIAH
TAF
KIAH 191141Z 1912/2018 31008KT 6SM -SHRA BR VCTS BKN005 OVC015CB
     FM191500 25004KT 6SM BR VCSH OVC007
     FM191800 23006KT P6SM BKN007 BKN015
     FM192100 21006KT P6SM BKN025
     FM200200 VRB04KT 4SM BR BKN010
     FM200600 VRB04KT 2SM BR OVC007
      TEMPO 2010/2014 1/2SM FG OVC002
     FM201400 VRB03KT 2SM BR BKN007 OVC012=

USA.gov is the U.S. government's official web portal to all federal, state and local government web resources and services.